Time;durP1;ratioP1;P1;durP2;ratioP2;P2;SDS_P1;SDS_P2;PMS_P1;PMS_P2;Temp;Humidity;BMP_temperature;BMP_pressure;BME280_temperature;BME280_humidity;BME280_pressure;Samples;Min_cycle;Max_cycle;Signal;HPM_P1;HPM_P2
2022/06/20 00:00:11;;;;;;;3.60;2.47;;;;;;;;;;5139767;27;20561;-53
2022/06/20 00:02:41;;;;;;;6.47;2.97;;;;;;;;;;5140844;27;20098;-55
2022/06/20 00:05:06;;;;;;;7.13;3.83;;;;;;;;;;5142937;27;20070;-54
2022/06/20 00:07:34;;;;;;;3.10;2.70;;;;;;;;;;5141405;27;20077;-54
2022/06/20 00:09:59;;;;;;;22.67;5.18;;;;;;;;;;5139808;27;20113;-54
2022/06/20 00:12:26;;;;;;;18.73;5.22;;;;;;;;;;5141223;27;20122;-53
2022/06/20 00:14:53;;;;;;;13.57;5.20;;;;;;;;;;5137657;27;20043;-54
2022/06/20 00:17:18;;;;;;;8.90;4.25;;;;;;;;;;5140948;27;20041;-52
2022/06/20 00:19:44;;;;;;;20.95;4.45;;;;;;;;;;5142608;27;20130;-55
2022/06/20 00:22:10;;;;;;;14.85;6.25;;;;;;;;;;5139443;27;20055;-53
2022/06/20 00:24:35;;;;;;;9.73;4.63;;;;;;;;;;5141589;27;20129;-54
2022/06/20 00:27:01;;;;;;;9.18;4.50;;;;;;;;;;5141140;27;20050;-55
2022/06/20 00:29:28;;;;;;;18.98;5.45;;;;;;;;;;5138960;27;20035;-55
2022/06/20 00:31:53;;;;;;;8.02;4.68;;;;;;;;;;5141535;27;20049;-54
2022/06/20 00:34:18;;;;;;;6.32;4.55;;;;;;;;;;5139989;27;20498;-54
2022/06/20 00:36:44;;;;;;;18.48;6.63;;;;;;;;;;5142558;27;20051;-54
2022/06/20 00:39:10;;;;;;;16.73;5.97;;;;;;;;;;5142426;27;20047;-52
2022/06/20 00:41:36;;;;;;;19.08;6.60;;;;;;;;;;5140769;27;20077;-52
2022/06/20 00:44:01;;;;;;;9.50;5.55;;;;;;;;;;5143076;27;20046;-53
2022/06/20 00:46:30;;;;;;;17.95;4.25;;;;;;;;;;5138134;27;20054;-52
2022/06/20 00:49:10;;;;;;;8.07;4.88;;;;;;;;;;5141808;27;20055;-53
2022/06/20 00:51:46;;;;;;;8.80;5.38;;;;;;;;;;5142533;27;20130;-53
2022/06/20 00:54:23;;;;;;;8.35;4.90;;;;;;;;;;5138872;27;20036;-54
2022/06/20 00:56:58;;;;;;;18.65;5.03;;;;;;;;;;5141098;27;20074;-55
2022/06/20 00:59:43;;;;;;;16.73;5.90;;;;;;;;;;5137683;27;20067;-50
2022/06/20 01:02:10;;;;;;;10.98;6.45;;;;;;;;;;5140991;27;20157;-54
2022/06/20 01:04:39;;;;;;;8.63;4.00;;;;;;;;;;5140383;27;20042;-54
2022/06/20 01:07:07;;;;;;;15.90;5.80;;;;;;;;;;5142446;27;20049;-54
2022/06/20 01:09:34;;;;;;;7.80;3.92;;;;;;;;;;5140445;27;20083;-51
2022/06/20 01:12:03;;;;;;;14.82;5.22;;;;;;;;;;5141699;27;20050;-53
2022/06/20 01:14:38;;;;;;;22.20;5.13;;;;;;;;;;5140612;27;20522;-53
2022/06/20 01:17:12;;;;;;;13.88;5.45;;;;;;;;;;5139634;27;20047;-54
2022/06/20 01:19:44;;;;;;;12.20;5.43;;;;;;;;;;5144589;27;20057;-52
2022/06/20 01:22:18;;;;;;;15.27;4.45;;;;;;;;;;5139106;27;20129;-55
2022/06/20 01:24:58;;;;;;;15.50;6.35;;;;;;;;;;5137861;27;20079;-52
2022/06/20 01:27:32;;;;;;;9.40;5.30;;;;;;;;;;5137207;27;20059;-54
2022/06/20 01:29:57;;;;;;;15.75;7.05;;;;;;;;;;5135505;27;20043;-55
2022/06/20 01:32:23;;;;;;;12.73;5.43;;;;;;;;;;5138836;27;20046;-50
2022/06/20 01:34:48;;;;;;;11.82;4.65;;;;;;;;;;5134486;27;20062;-55
2022/06/20 01:37:23;;;;;;;17.35;5.18;;;;;;;;;;5134179;27;20054;-54
2022/06/20 01:39:50;;;;;;;17.77;6.13;;;;;;;;;;5137713;27;20050;-54
2022/06/20 01:42:18;;;;;;;18.08;6.25;;;;;;;;;;5141398;27;20046;-55
2022/06/20 01:44:45;;;;;;;12.73;6.07;;;;;;;;;;5138856;27;20042;-50
2022/06/20 01:47:11;;;;;;;16.52;5.78;;;;;;;;;;5140293;27;20435;-52
2022/06/20 01:49:37;;;;;;;14.18;5.68;;;;;;;;;;5139337;27;20430;-54
2022/06/20 01:52:24;;;;;;;14.13;5.63;;;;;;;;;;5138874;27;20039;-53
2022/06/20 01:54:54;;;;;;;7.47;4.40;;;;;;;;;;5138746;27;20406;-52
2022/06/20 01:57:21;;;;;;;19.00;6.10;;;;;;;;;;5137750;27;20146;-53
2022/06/20 02:00:12;;;;;;;17.58;4.93;;;;;;;;;;5141250;27;20045;-52
2022/06/20 02:02:43;;;;;;;22.08;6.57;;;;;;;;;;5134081;27;20039;-54
2022/06/20 02:05:11;;;;;;;8.98;4.35;;;;;;;;;;5138151;27;20034;-56
2022/06/20 02:07:36;;;;;;;11.85;5.82;;;;;;;;;;5139749;27;20050;-54
2022/06/20 02:10:03;;;;;;;10.75;5.25;;;;;;;;;;5140345;27;20039;-52
2022/06/20 02:12:31;;;;;;;11.05;5.47;;;;;;;;;;5139944;27;20047;-52
2022/06/20 02:14:57;;;;;;;16.13;4.60;;;;;;;;;;5137555;27;20039;-54
2022/06/20 02:17:25;;;;;;;9.35;5.13;;;;;;;;;;5140324;27;20062;-53
2022/06/20 02:19:53;;;;;;;9.98;3.88;;;;;;;;;;5139911;27;20039;-53
2022/06/20 02:22:19;;;;;;;11.63;5.75;;;;;;;;;;5139195;27;20042;-54
2022/06/20 02:24:46;;;;;;;11.15;6.55;;;;;;;;;;5138463;27;20070;-53
2022/06/20 02:27:32;;;;;;;32.80;5.50;;;;;;;;;;5139709;27;20058;-55
2022/06/20 02:29:58;;;;;;;18.17;7.25;;;;;;;;;;5140565;27;20076;-54
2022/06/20 02:32:25;;;;;;;16.77;7.00;;;;;;;;;;5137246;27;20073;-55
2022/06/20 02:34:50;;;;;;;9.35;5.10;;;;;;;;;;5137765;27;20570;-53
2022/06/20 02:37:20;;;;;;;17.95;6.68;;;;;;;;;;5141162;27;20047;-52
2022/06/20 02:39:47;;;;;;;15.27;5.10;;;;;;;;;;5133994;27;20111;-55
2022/06/20 02:42:14;;;;;;;12.23;4.90;;;;;;;;;;5138413;27;20071;-55
2022/06/20 02:44:41;;;;;;;11.85;5.82;;;;;;;;;;5140226;27;20045;-52
2022/06/20 02:47:08;;;;;;;13.65;6.20;;;;;;;;;;5140143;27;20046;-55
2022/06/20 02:49:33;;;;;;;19.05;6.65;;;;;;;;;;5136627;27;20035;-54
2022/06/20 02:52:00;;;;;;;15.88;5.53;;;;;;;;;;5146719;27;20057;-51
2022/06/20 02:54:27;;;;;;;8.90;5.57;;;;;;;;;;5144215;27;20041;-50
2022/06/20 02:56:58;;;;;;;10.80;5.57;;;;;;;;;;5145116;27;20155;-53
2022/06/20 02:59:27;;;;;;;20.40;5.55;;;;;;;;;;5140714;27;20133;-54
2022/06/20 03:01:55;;;;;;;11.15;5.50;;;;;;;;;;5143070;27;20116;-52
2022/06/20 03:04:21;;;;;;;19.95;5.47;;;;;;;;;;5140804;27;20058;-54
2022/06/20 03:06:49;;;;;;;16.70;6.80;;;;;;;;;;5141308;27;20047;-55
2022/06/20 03:09:17;;;;;;;14.20;5.57;;;;;;;;;;5142592;27;20049;-54
2022/06/20 03:11:43;;;;;;;14.52;6.72;;;;;;;;;;5143760;27;20632;-53
2022/06/20 03:14:12;;;;;;;12.35;3.80;;;;;;;;;;5144526;27;20134;-53
2022/06/20 03:16:41;;;;;;;12.23;6.03;;;;;;;;;;5141958;27;20131;-55
2022/06/20 03:19:11;;;;;;;9.85;5.78;;;;;;;;;;5137712;27;20038;-54
2022/06/20 03:21:38;;;;;;;10.97;5.37;;;;;;;;;;5140275;27;20080;-52
2022/06/20 03:24:04;;;;;;;17.17;7.15;;;;;;;;;;5141779;27;20498;-51
2022/06/20 03:26:30;;;;;;;10.63;5.35;;;;;;;;;;5139579;27;20058;-56
2022/06/20 03:28:56;;;;;;;9.30;3.95;;;;;;;;;;5141873;27;20047;-55
2022/06/20 03:31:22;;;;;;;21.35;4.82;;;;;;;;;;5143414;27;20458;-54
2022/06/20 03:33:47;;;;;;;27.40;4.97;;;;;;;;;;5141927;27;20034;-54
2022/06/20 03:36:19;;;;;;;17.40;6.90;;;;;;;;;;5142223;27;20035;-53
2022/06/20 03:38:46;;;;;;;7.05;4.38;;;;;;;;;;5142164;27;20218;-50
2022/06/20 03:41:13;;;;;;;11.77;5.55;;;;;;;;;;5141326;27;20040;-54
2022/06/20 03:43:40;;;;;;;14.10;5.47;;;;;;;;;;5141389;27;20057;-53
2022/06/20 03:46:10;;;;;;;10.07;4.32;;;;;;;;;;5141382;27;20054;-55
2022/06/20 03:48:37;;;;;;;12.27;5.20;;;;;;;;;;5141550;27;20047;-56
2022/06/20 03:51:09;;;;;;;13.68;5.47;;;;;;;;;;5138464;27;20576;-52
2022/06/20 03:53:46;;;;;;;13.85;5.80;;;;;;;;;;5142458;27;20171;-52
2022/06/20 03:56:18;;;;;;;11.88;5.68;;;;;;;;;;5139288;27;20074;-54
2022/06/20 03:59:07;;;;;;;13.48;5.72;;;;;;;;;;5141860;27;20069;-54
2022/06/20 04:01:38;;;;;;;20.60;5.05;;;;;;;;;;5138847;27;20066;-54
2022/06/20 04:04:07;;;;;;;25.77;6.22;;;;;;;;;;5143126;27;20134;-53
2022/06/20 04:06:38;;;;;;;15.95;4.68;;;;;;;;;;5139904;27;20046;-54
2022/06/20 04:12:09;;;;;;;27.08;7.32;;;;;;;;;;5144567;27;20046;-54
2022/06/20 04:14:47;;;;;;;6.53;3.72;;;;;;;;;;5138648;27;20042;-53
2022/06/20 04:20:06;;;;;;;11.80;5.53;;;;;;;;;;5134561;27;20093;-54
2022/06/20 04:22:33;;;;;;;22.63;5.38;;;;;;;;;;5140260;27;20439;-54
2022/06/20 04:25:01;;;;;;;10.77;7.03;;;;;;;;;;5143622;27;20046;-56
2022/06/20 04:27:29;;;;;;;11.18;5.22;;;;;;;;;;5140165;27;20058;-55
2022/06/20 04:30:00;;;;;;;11.30;5.20;;;;;;;;;;5140829;27;20046;-53
2022/06/20 04:32:40;;;;;;;20.35;6.13;;;;;;;;;;5136561;27;20042;-54
2022/06/20 04:35:24;;;;;;;11.05;6.22;;;;;;;;;;5138235;27;20098;-53
2022/06/20 04:37:53;;;;;;;20.40;4.35;;;;;;;;;;5138480;27;20039;-49
2022/06/20 04:40:22;;;;;;;14.45;5.88;;;;;;;;;;5136907;27;20047;-51
2022/06/20 04:42:50;;;;;;;9.57;5.60;;;;;;;;;;5138616;27;20084;-52
2022/06/20 04:45:24;;;;;;;13.50;5.97;;;;;;;;;;5139340;27;20039;-49
2022/06/20 04:47:52;;;;;;;12.43;6.57;;;;;;;;;;5137664;27;20042;-55
2022/06/20 04:50:19;;;;;;;11.35;6.18;;;;;;;;;;5140820;27;20053;-55
2022/06/20 04:52:45;;;;;;;24.13;6.03;;;;;;;;;;5139237;27;20107;-53
2022/06/20 04:55:15;;;;;;;40.58;7.05;;;;;;;;;;5141392;27;20523;-54
2022/06/20 04:57:40;;;;;;;13.00;6.97;;;;;;;;;;5142870;27;20030;-49
2022/06/20 05:00:08;;;;;;;16.17;6.13;;;;;;;;;;5138702;27;20039;-54
2022/06/20 05:02:34;;;;;;;18.65;6.97;;;;;;;;;;5136690;27;20055;-54
2022/06/20 05:05:04;;;;;;;7.80;5.28;;;;;;;;;;5140250;27;20046;-53
2022/06/20 05:07:33;;;;;;;15.20;5.20;;;;;;;;;;5141830;27;20122;-54
2022/06/20 05:10:01;;;;;;;11.25;6.63;;;;;;;;;;5139332;27;20554;-54
2022/06/20 05:12:48;;;;;;;12.65;7.50;;;;;;;;;;5136602;27;20141;-52
2022/06/20 05:15:16;;;;;;;15.43;7.22;;;;;;;;;;5136762;27;20034;-51
2022/06/20 05:17:43;;;;;;;15.68;8.10;;;;;;;;;;5140270;27;20412;-55
2022/06/20 05:20:17;;;;;;;11.18;7.07;;;;;;;;;;5137633;27;20034;-51
2022/06/20 05:22:46;;;;;;;28.08;7.45;;;;;;;;;;5141291;27;20122;-55
2022/06/20 05:25:14;;;;;;;42.40;7.80;;;;;;;;;;5142057;27;20034;-54
2022/06/20 05:27:48;;;;;;;22.15;9.32;;;;;;;;;;5137957;27;20106;-54
2022/06/20 05:30:16;;;;;;;17.50;7.72;;;;;;;;;;5138866;27;20039;-52
2022/06/20 05:32:54;;;;;;;33.88;9.02;;;;;;;;;;5138892;27;20068;-55
2022/06/20 05:35:25;;;;;;;14.68;6.35;;;;;;;;;;5140557;27;20386;-49
2022/06/20 05:38:01;;;;;;;14.10;6.50;;;;;;;;;;5141954;27;20042;-51
2022/06/20 05:40:28;;;;;;;17.63;6.80;;;;;;;;;;5140527;27;20045;-48
2022/06/20 05:42:54;;;;;;;19.92;8.32;;;;;;;;;;5137612;27;20039;-54
2022/06/20 05:45:21;;;;;;;16.55;7.35;;;;;;;;;;5137325;27;20452;-52
2022/06/20 05:47:50;;;;;;;23.65;7.95;;;;;;;;;;5140295;27;20108;-53
2022/06/20 05:50:18;;;;;;;19.45;8.00;;;;;;;;;;5136996;27;20039;-52
2022/06/20 05:52:44;;;;;;;15.27;4.95;;;;;;;;;;5136203;27;20452;-55
2022/06/20 05:55:16;;;;;;;10.23;5.40;;;;;;;;;;5139789;27;20031;-52
2022/06/20 05:57:45;;;;;;;15.98;6.75;;;;;;;;;;5138692;27;20115;-50
2022/06/20 06:00:16;;;;;;;18.23;6.05;;;;;;;;;;5140174;27;20035;-50
2022/06/20 06:02:55;;;;;;;20.70;6.22;;;;;;;;;;5139104;27;20043;-51
2022/06/20 06:05:34;;;;;;;14.90;6.47;;;;;;;;;;5140239;27;20096;-49
2022/06/20 06:07:59;;;;;;;17.65;6.05;;;;;;;;;;5138934;27;20497;-48
2022/06/20 06:10:43;;;;;;;19.38;6.68;;;;;;;;;;5141435;27;20034;-54
2022/06/20 06:13:14;;;;;;;31.42;8.23;;;;;;;;;;5137698;27;20049;-51
2022/06/20 06:16:46;;;;;;;19.23;5.75;;;;;;;;;;5137078;27;20131;-50
2022/06/20 06:18:28;;;;;;;11.40;7.85;;;;;;;;;;5139589;27;20039;-55
2022/06/20 06:20:54;;;;;;;12.20;7.20;;;;;;;;;;5136688;27;20483;-55
2022/06/20 06:23:19;;;;;;;8.07;3.88;;;;;;;;;;5135796;27;20180;-55
2022/06/20 06:25:44;;;;;;;15.82;6.95;;;;;;;;;;5135866;27;20185;-54
2022/06/20 06:28:24;;;;;;;21.70;6.55;;;;;;;;;;5136986;27;20140;-55
2022/06/20 06:31:00;;;;;;;17.50;9.30;;;;;;;;;;5137967;27;20043;-51
2022/06/20 06:33:28;;;;;;;17.67;7.90;;;;;;;;;;5135444;27;20035;-57
2022/06/20 06:35:55;;;;;;;21.75;7.53;;;;;;;;;;5138308;27;20088;-54
2022/06/20 06:38:39;;;;;;;11.40;6.13;;;;;;;;;;5135967;27;20047;-55
2022/06/20 06:41:07;;;;;;;15.50;5.55;;;;;;;;;;5135104;27;20045;-55
2022/06/20 06:43:37;;;;;;;10.75;5.65;;;;;;;;;;5133192;27;20119;-56
2022/06/20 06:46:04;;;;;;;16.20;7.82;;;;;;;;;;5135751;27;20055;-60
2022/06/20 06:48:32;;;;;;;23.98;6.75;;;;;;;;;;5137575;27;20058;-63
2022/06/20 06:51:02;;;;;;;30.50;7.60;;;;;;;;;;5137719;27;20050;-62
2022/06/20 06:53:50;;;;;;;23.35;7.07;;;;;;;;;;5139799;27;20540;-62
2022/06/20 06:56:18;;;;;;;19.27;5.75;;;;;;;;;;5138956;27;20134;-63
2022/06/20 06:58:46;;;;;;;28.63;5.40;;;;;;;;;;5141027;27;20046;-61
2022/06/20 07:01:14;;;;;;;101.78;18.85;;;;;;;;;;5138347;27;20042;-62
2022/06/20 07:03:46;;;;;;;90.90;27.08;;;;;;;;;;5132704;27;20103;-63
2022/06/20 07:06:30;;;;;;;14.73;8.20;;;;;;;;;;5135246;27;20501;-63
2022/06/20 07:09:02;;;;;;;21.00;8.23;;;;;;;;;;5136300;27;20051;-63
2022/06/20 07:11:29;;;;;;;14.95;5.65;;;;;;;;;;5134639;27;20027;-63
2022/06/20 07:13:57;;;;;;;41.47;12.63;;;;;;;;;;5136885;27;20039;-63
2022/06/20 07:16:39;;;;;;;15.07;6.35;;;;;;;;;;5138833;27;20038;-63
2022/06/20 07:19:06;;;;;;;24.02;7.00;;;;;;;;;;5136468;27;20616;-65
2022/06/20 07:21:32;;;;;;;14.52;5.05;;;;;;;;;;5141319;27;20047;-63
2022/06/20 07:24:08;;;;;;;10.02;4.93;;;;;;;;;;5137294;27;20043;-64
2022/06/20 07:26:43;;;;;;;16.77;5.78;;;;;;;;;;5137474;27;20044;-64
2022/06/20 07:29:26;;;;;;;18.08;7.47;;;;;;;;;;5139800;27;20107;-63
2022/06/20 07:31:54;;;;;;;16.30;5.38;;;;;;;;;;5137455;27;20180;-64
2022/06/20 07:34:23;;;;;;;18.40;5.97;;;;;;;;;;5138511;27;20039;-63
2022/06/20 07:36:57;;;;;;;15.27;6.53;;;;;;;;;;5143564;27;20672;-64
2022/06/20 07:39:25;;;;;;;14.30;7.40;;;;;;;;;;5141962;27;20047;-63
2022/06/20 07:41:55;;;;;;;12.52;5.68;;;;;;;;;;5141131;27;20059;-63
2022/06/20 07:44:20;;;;;;;;;;;;;;;;;;5139185;27;20133;-63
2022/06/20 07:46:52;;;;;;;18.57;5.57;;;;;;;;;;5138972;27;20006;-64
2022/06/20 07:49:24;;;;;;;23.83;7.28;;;;;;;;;;5120165;27;20043;-63
2022/06/20 07:51:51;;;;;;;6.32;4.50;;;;;;;;;;5139949;27;20043;-64
2022/06/20 07:54:18;;;;;;;26.98;8.23;;;;;;;;;;5138214;27;20130;-64
2022/06/20 07:57:16;;;;;;;17.23;8.77;;;;;;;;;;5140877;27;20039;-64
2022/06/20 07:59:47;;;;;;;12.93;4.35;;;;;;;;;;5098475;27;20047;-64
2022/06/20 08:02:18;;;;;;;17.17;6.38;;;;;;;;;;5141887;27;20417;-64
2022/06/20 08:04:44;;;;;;;9.32;4.15;;;;;;;;;;5141887;27;20106;-64
2022/06/20 08:07:16;;;;;;;7.70;4.53;;;;;;;;;;5140519;27;20066;-64
2022/06/20 08:10:00;;;;;;;7.32;3.70;;;;;;;;;;5140458;27;20134;-64
2022/06/20 08:12:28;;;;;;;20.10;5.43;;;;;;;;;;5140894;27;20061;-64
2022/06/20 08:15:06;;;;;;;10.35;3.78;;;;;;;;;;5143861;27;20042;-64
2022/06/20 08:17:32;;;;;;;10.43;5.43;;;;;;;;;;5141250;27;20051;-64
2022/06/20 08:19:58;;;;;;;9.25;4.28;;;;;;;;;;5140446;27;20569;-64
2022/06/20 08:22:27;;;;;;;23.35;4.75;;;;;;;;;;5144641;27;20042;-64
2022/06/20 08:25:08;;;;;;;24.27;6.13;;;;;;;;;;5140074;27;20513;-64
2022/06/20 08:27:43;;;;;;;14.85;4.15;;;;;;;;;;5139473;27;20058;-65
2022/06/20 08:30:16;;;;;;;8.07;6.93;;;;;;;;;;5137766;27;20553;-56
2022/06/20 08:33:08;;;;;;;16.40;5.00;;;;;;;;;;5143477;27;20096;-64
2022/06/20 08:35:42;;;;;;;16.48;3.13;;;;;;;;;;5118704;27;20455;-64
2022/06/20 08:38:28;;;;;;;6.43;3.33;;;;;;;;;;5138768;27;20664;-62
2022/06/20 08:41:03;;;;;;;16.42;4.22;;;;;;;;;;5108366;27;20050;-62
2022/06/20 08:43:42;;;;;;;10.30;5.72;;;;;;;;;;5142510;27;20050;-62
2022/06/20 08:46:10;;;;;;;12.25;4.22;;;;;;;;;;5139819;27;20107;-62
2022/06/20 08:48:36;;;;;;;16.77;3.45;;;;;;;;;;5141867;27;20114;-62
2022/06/20 08:51:04;;;;;;;17.85;4.75;;;;;;;;;;5142837;27;20126;-62
2022/06/20 08:53:29;;;;;;;9.98;3.75;;;;;;;;;;5137867;27;20088;-62
2022/06/20 08:56:01;;;;;;;13.70;5.97;;;;;;;;;;5135999;27;20051;-63
2022/06/20 08:58:32;;;;;;;11.18;5.32;;;;;;;;;;5142438;27;20041;-63
2022/06/20 09:01:01;;;;;;;13.15;7.13;;;;;;;;;;5140402;27;20039;-64
2022/06/20 09:03:27;;;;;;;8.02;4.22;;;;;;;;;;5138837;27;20053;-63
2022/06/20 09:05:55;;;;;;;5.22;3.28;;;;;;;;;;5142476;27;20337;-63
2022/06/20 09:08:33;;;;;;;9.27;3.83;;;;;;;;;;5141715;27;20130;-63
2022/06/20 09:11:01;;;;;;;19.73;5.25;;;;;;;;;;5140159;27;20039;-63
2022/06/20 09:13:46;;;;;;;16.45;4.13;;;;;;;;;;5138155;27;20516;-63
2022/06/20 09:16:20;;;;;;;10.48;5.28;;;;;;;;;;5137312;27;20030;-62
2022/06/20 09:19:03;;;;;;;12.18;4.75;;;;;;;;;;5138033;27;20039;-64
2022/06/20 09:21:34;;;;;;;11.25;5.63;;;;;;;;;;5137954;27;20133;-63
2022/06/20 09:24:10;;;;;;;16.13;4.72;;;;;;;;;;5138285;27;20094;-64
2022/06/20 09:26:35;;;;;;;13.52;2.15;;;;;;;;;;5136362;27;20035;-64
2022/06/20 09:29:07;;;;;;;11.00;4.25;;;;;;;;;;5137158;27;20134;-64
2022/06/20 09:31:35;;;;;;;11.18;3.42;;;;;;;;;;5134238;27;20042;-62
2022/06/20 09:34:09;;;;;;;9.52;4.70;;;;;;;;;;5134210;27;20074;-62
2022/06/20 09:36:37;;;;;;;29.38;5.50;;;;;;;;;;5133915;27;20047;-62
2022/06/20 09:39:09;;;;;;;18.52;10.23;;;;;;;;;;5134834;27;20034;-62
2022/06/20 09:41:43;;;;;;;8.98;5.43;;;;;;;;;;5140301;27;20745;-63
2022/06/20 09:44:08;;;;;;;15.25;3.83;;;;;;;;;;5136717;27;20047;-62
2022/06/20 09:46:52;;;;;;;13.85;3.33;;;;;;;;;;5134425;27;20103;-62
2022/06/20 09:49:30;;;;;;;14.50;5.45;;;;;;;;;;5134758;27;20027;-62
2022/06/20 09:52:07;;;;;;;7.97;3.65;;;;;;;;;;5134647;27;20046;-62
2022/06/20 09:54:42;;;;;;;22.75;4.80;;;;;;;;;;5141676;27;20039;-62
2022/06/20 09:57:07;;;;;;;8.70;2.97;;;;;;;;;;5138949;27;20053;-61
2022/06/20 09:59:45;;;;;;;14.10;4.95;;;;;;;;;;5135749;27;20035;-49
2022/06/20 10:02:13;;;;;;;13.45;3.92;;;;;;;;;;5138180;27;20035;-53
2022/06/20 10:04:58;;;;;;;15.82;4.65;;;;;;;;;;5141638;27;20187;-45
2022/06/20 10:07:38;;;;;;;10.30;5.60;;;;;;;;;;5141195;27;20119;-56
2022/06/20 10:10:10;;;;;;;16.15;5.13;;;;;;;;;;5141993;27;20462;-57
2022/06/20 10:12:38;;;;;;;21.83;5.32;;;;;;;;;;5135051;27;20438;-59
2022/06/20 10:15:14;;;;;;;3.53;3.05;;;;;;;;;;5137537;27;20114;-58
2022/06/20 10:17:47;;;;;;;20.25;3.88;;;;;;;;;;5139107;27;20075;-57
2022/06/20 10:20:31;;;;;;;20.10;6.65;;;;;;;;;;5139511;27;20054;-58
2022/06/20 10:23:02;;;;;;;20.85;4.53;;;;;;;;;;5139510;27;20051;-59
2022/06/20 10:25:33;;;;;;;11.60;5.00;;;;;;;;;;5138074;27;20031;-59
2022/06/20 10:27:58;;;;;;;7.10;4.53;;;;;;;;;;5140343;27;20138;-47
2022/06/20 10:30:24;;;;;;;12.30;6.05;;;;;;;;;;5135355;27;20047;-47
2022/06/20 10:32:56;;;;;;;9.65;4.35;;;;;;;;;;5120371;27;20042;-51
2022/06/20 10:35:21;;;;;;;6.63;3.67;;;;;;;;;;5138749;27;20051;-54
2022/06/20 10:38:08;;;;;;;23.90;6.25;;;;;;;;;;5141056;27;20043;-54
2022/06/20 10:40:40;;;;;;;9.07;2.33;;;;;;;;;;5140101;27;20054;-52
2022/06/20 10:43:08;;;;;;;5.95;4.65;;;;;;;;;;5139786;27;20085;-48
2022/06/20 10:45:49;;;;;;;9.10;4.10;;;;;;;;;;5141007;27;20049;-52
2022/06/20 10:48:16;;;;;;;13.73;4.07;;;;;;;;;;5139369;27;20077;-49
2022/06/20 10:50:46;;;;;;;4.07;2.78;;;;;;;;;;5138544;27;20043;-49
2022/06/20 10:53:15;;;;;;;14.25;4.90;;;;;;;;;;5138371;27;20130;-52
2022/06/20 10:55:47;;;;;;;585.88;130.25;;;;;;;;;;5139090;27;20076;-51
2022/06/20 10:58:21;;;;;;;16.85;5.03;;;;;;;;;;5137998;27;21198;-51
2022/06/20 11:00:50;;;;;;;11.02;3.83;;;;;;;;;;5141668;27;20039;-51
2022/06/20 11:03:21;;;;;;;24.70;15.93;;;;;;;;;;5135943;27;20129;-52
2022/06/20 11:05:55;;;;;;;11.57;3.70;;;;;;;;;;5138064;27;20085;-48
2022/06/20 11:08:33;;;;;;;23.40;4.90;;;;;;;;;;5139590;27;20043;-50
2022/06/20 11:11:01;;;;;;;13.52;3.75;;;;;;;;;;5137463;27;20061;-52
2022/06/20 11:13:53;;;;;;;4.57;3.00;;;;;;;;;;5139971;27;20047;-49
2022/06/20 11:16:22;;;;;;;8.48;5.15;;;;;;;;;;5138124;27;20068;-47
2022/06/20 11:18:58;;;;;;;9.65;2.83;;;;;;;;;;5141096;27;20045;-53
2022/06/20 11:21:42;;;;;;;21.80;3.85;;;;;;;;;;5138775;27;20057;-51
2022/06/20 11:24:14;;;;;;;7.03;3.63;;;;;;;;;;5139130;27;20078;-53
2022/06/20 11:26:55;;;;;;;15.63;5.75;;;;;;;;;;5140379;27;20043;-51
2022/06/20 11:29:26;;;;;;;17.45;4.50;;;;;;;;;;5144546;27;20113;-49
2022/06/20 11:32:04;;;;;;;16.58;6.20;;;;;;;;;;5141652;27;20057;-52
2022/06/20 11:34:53;;;;;;;12.38;4.68;;;;;;;;;;5122459;27;20047;-52
2022/06/20 11:37:21;;;;;;;16.85;5.22;;;;;;;;;;5128704;27;20145;-54
2022/06/20 11:40:07;;;;;;;10.80;5.20;;;;;;;;;;5143506;27;20042;-52
2022/06/20 11:42:51;;;;;;;7.88;3.85;;;;;;;;;;5140278;27;20103;-53
2022/06/20 11:45:28;;;;;;;5.88;3.38;;;;;;;;;;5142422;27;20057;-53
2022/06/20 11:47:53;;;;;;;17.83;5.45;;;;;;;;;;5141827;27;20238;-52
2022/06/20 11:50:19;;;;;;;8.43;3.97;;;;;;;;;;5143205;27;20635;-52
2022/06/20 11:52:54;;;;;;;12.43;4.32;;;;;;;;;;5142096;27;20179;-48
2022/06/20 11:55:19;;;;;;;11.80;4.53;;;;;;;;;;5141945;27;20046;-50
2022/06/20 11:57:48;;;;;;;10.93;4.20;;;;;;;;;;5141730;27;20054;-50
2022/06/20 12:00:19;;;;;;;10.55;4.07;;;;;;;;;;5142937;27;20255;-49
2022/06/20 12:02:56;;;;;;;7.15;3.58;;;;;;;;;;5142681;27;20112;-57
2022/06/20 12:05:28;;;;;;;4.90;2.83;;;;;;;;;;5137493;27;20053;-52
2022/06/20 12:08:01;;;;;;;13.10;4.78;;;;;;;;;;5136320;27;20050;-51
2022/06/20 12:10:30;;;;;;;12.45;3.47;;;;;;;;;;5139858;27;20389;-51
2022/06/20 12:12:55;;;;;;;11.20;6.03;;;;;;;;;;5141050;27;20573;-49
2022/06/20 12:15:39;;;;;;;11.80;4.65;;;;;;;;;;5142933;27;20122;-52
2022/06/20 12:18:07;;;;;;;5.68;3.78;;;;;;;;;;5144292;27;20077;-52
2022/06/20 12:23:24;;;;;;;16.88;6.35;;;;;;;;;;5138058;27;20091;-47
2022/06/20 12:25:56;;;;;;;9.65;4.95;;;;;;;;;;5141559;27;21025;-49
2022/06/20 12:28:22;;;;;;;6.53;2.25;;;;;;;;;;5142351;27;20049;-51
2022/06/20 12:30:53;;;;;;;6.25;3.45;;;;;;;;;;5139884;27;20133;-52
2022/06/20 12:33:18;;;;;;;6.68;2.65;;;;;;;;;;5140725;27;20113;-50
2022/06/20 12:35:46;;;;;;;7.82;4.13;;;;;;;;;;5140555;27;20435;-49
2022/06/20 12:38:16;;;;;;;3.00;1.83;;;;;;;;;;5138338;27;20051;-50
2022/06/20 12:40:48;;;;;;;3.97;2.35;;;;;;;;;;5137682;27;20058;-50
2022/06/20 12:43:13;;;;;;;4.80;2.33;;;;;;;;;;5138572;27;20038;-50
2022/06/20 12:45:45;;;;;;;6.88;4.05;;;;;;;;;;5140096;27;20050;-54
2022/06/20 12:48:23;;;;;;;13.50;6.07;;;;;;;;;;5140566;27;20074;-53
2022/06/20 12:50:53;;;;;;;8.57;4.35;;;;;;;;;;5141043;27;20137;-54
2022/06/20 12:53:30;;;;;;;19.73;4.57;;;;;;;;;;5138512;27;20133;-53
2022/06/20 12:56:14;;;;;;;7.90;3.25;;;;;;;;;;5140609;27;20620;-52
2022/06/20 12:58:42;;;;;;;6.45;3.60;;;;;;;;;;5140802;27;20046;-50
2022/06/20 13:01:07;;;;;;;6.60;3.63;;;;;;;;;;5138750;27;20111;-53
2022/06/20 13:03:47;;;;;;;5.95;3.20;;;;;;;;;;5140276;27;20507;-53
2022/06/20 13:06:22;;;;;;;8.65;2.70;;;;;;;;;;5138868;27;20550;-50
2022/06/20 13:08:50;;;;;;;7.10;2.90;;;;;;;;;;5140113;27;20054;-53
2022/06/20 13:11:15;;;;;;;19.38;3.03;;;;;;;;;;5142183;27;20394;-50
2022/06/20 13:13:40;;;;;;;8.32;3.90;;;;;;;;;;5140580;27;20502;-52
2022/06/20 13:16:24;;;;;;;7.45;3.75;;;;;;;;;;5138348;27;20505;-50
2022/06/20 13:19:16;;;;;;;9.77;3.83;;;;;;;;;;5141216;27;20086;-54
2022/06/20 13:21:46;;;;;;;4.78;3.17;;;;;;;;;;5117152;27;20125;-53
2022/06/20 13:24:20;;;;;;;17.52;5.50;;;;;;;;;;5138097;27;20050;-53
2022/06/20 13:26:49;;;;;;;7.88;3.40;;;;;;;;;;5137374;27;20051;-50
2022/06/20 13:29:36;;;;;;;10.43;4.15;;;;;;;;;;5140635;27;20045;-51
2022/06/20 13:32:01;;;;;;;5.45;2.13;;;;;;;;;;5138561;27;20045;-50
2022/06/20 13:35:08;;;;;;;3.95;2.88;;;;;;;;;;5137596;27;20039;-54
2022/06/20 13:37:54;;;;;;;8.85;3.88;;;;;;;;;;5076722;28;20083;-54
2022/06/20 13:40:41;;;;;;;18.00;4.80;;;;;;;;;;5072995;28;20131;-51
2022/06/20 13:43:13;;;;;;;9.85;5.00;;;;;;;;;;5121634;27;20490;-53
2022/06/20 13:45:46;;;;;;;8.23;3.25;;;;;;;;;;5142479;27;20046;-51
2022/06/20 13:48:21;;;;;;;11.25;3.10;;;;;;;;;;5137873;27;20127;-53
2022/06/20 13:50:55;;;;;;;10.32;4.63;;;;;;;;;;5141511;27;20035;-50
2022/06/20 13:53:25;;;;;;;11.20;3.75;;;;;;;;;;5136636;27;20030;-49
2022/06/20 13:55:59;;;;;;;8.85;3.35;;;;;;;;;;5142793;27;20042;-51
2022/06/20 13:58:24;;;;;;;11.90;5.65;;;;;;;;;;5137868;27;20047;-53
2022/06/20 14:00:54;;;;;;;7.40;3.03;;;;;;;;;;5140371;27;20058;-49
2022/06/20 14:03:23;;;;;;;11.85;4.60;;;;;;;;;;5136654;27;20046;-51
2022/06/20 14:05:49;;;;;;;9.07;2.83;;;;;;;;;;5138509;27;20079;-47
2022/06/20 14:08:14;;;;;;;21.45;2.75;;;;;;;;;;5139566;27;20043;-51
2022/06/20 14:10:44;;;;;;;11.20;5.22;;;;;;;;;;5141505;27;20497;-49
2022/06/20 14:13:27;;;;;;;38.70;34.70;;;;;;;;;;5137763;27;20047;-47
2022/06/20 14:16:12;;;;;;;5.95;3.13;;;;;;;;;;5134079;27;20736;-53
2022/06/20 14:18:38;;;;;;;10.25;3.40;;;;;;;;;;5137760;27;20051;-53
2022/06/20 14:21:05;;;;;;;6.38;3.17;;;;;;;;;;5140232;27;20587;-51
2022/06/20 14:23:31;;;;;;;6.22;3.55;;;;;;;;;;5138438;27;20046;-53
2022/06/20 14:25:59;;;;;;;12.20;4.30;;;;;;;;;;5141857;27;20458;-54
2022/06/20 14:28:38;;;;;;;6.82;3.38;;;;;;;;;;5140836;27;20039;-54
2022/06/20 14:31:10;;;;;;;7.95;5.47;;;;;;;;;;5140323;27;20063;-49
2022/06/20 14:33:37;;;;;;;6.38;3.55;;;;;;;;;;5138935;27;20087;-52
2022/06/20 14:36:03;;;;;;;10.85;3.63;;;;;;;;;;5139672;27;20054;-52
2022/06/20 14:38:37;;;;;;;8.32;3.97;;;;;;;;;;5137906;27;20111;-53
2022/06/20 14:41:41;;;;;;;5.55;3.00;;;;;;;;;;5135608;27;20051;-54
2022/06/20 14:44:21;;;;;;;17.90;5.68;;;;;;;;;;5101682;27;20088;-52
2022/06/20 14:46:58;;;;;;;10.98;6.13;;;;;;;;;;5140497;27;20039;-53
2022/06/20 14:49:27;;;;;;;10.68;4.45;;;;;;;;;;5143470;27;20053;-51
2022/06/20 14:52:05;;;;;;;14.35;6.47;;;;;;;;;;5145061;27;20049;-50
2022/06/20 14:54:42;;;;;;;17.05;5.82;;;;;;;;;;5139098;27;20042;-55
2022/06/20 14:57:14;;;;;;;8.02;3.40;;;;;;;;;;5144319;27;20042;-53
2022/06/20 15:00:00;;;;;;;13.75;6.43;;;;;;;;;;5141534;27;20070;-53
2022/06/20 15:02:33;;;;;;;11.90;4.65;;;;;;;;;;5143308;27;20042;-52
2022/06/20 15:05:07;;;;;;;20.98;5.38;;;;;;;;;;5142072;27;20043;-53
2022/06/20 15:07:48;;;;;;;15.43;4.18;;;;;;;;;;5142734;27;20092;-53